sensor_id;sensor_type;location;lat;lon;timestamp;P1;durP1;ratioP1;P2;durP2;ratioP2
11211;SDS011;5663;50.864;12.096;2023-08-31T00:02:11;2.03;;;1.20;;
11211;SDS011;5663;50.864;12.096;2023-08-31T00:04:44;1.50;;;1.40;;
11211;SDS011;5663;50.864;12.096;2023-08-31T00:07:21;3.13;;;1.43;;
11211;SDS011;5663;50.864;12.096;2023-08-31T00:10:11;2.50;;;1.20;;
11211;SDS011;5663;50.864;12.096;2023-08-31T00:12:40;2.00;;;1.30;;
11211;SDS011;5663;50.864;12.096;2023-08-31T00:15:19;1.40;;;1.30;;
11211;SDS011;5663;50.864;12.096;2023-08-31T00:18:05;1.60;;;1.50;;
11211;SDS011;5663;50.864;12.096;2023-08-31T00:24:11;3.43;;;1.30;;
11211;SDS011;5663;50.864;12.096;2023-08-31T00:27:07;2.10;;;1.47;;
11211;SDS011;5663;50.864;12.096;2023-08-31T00:29:40;1.60;;;1.40;;
11211;SDS011;5663;50.864;12.096;2023-08-31T00:32:15;1.80;;;1.70;;
11211;SDS011;5663;50.864;12.096;2023-08-31T00:34:47;2.03;;;1.63;;
11211;SDS011;5663;50.864;12.096;2023-08-31T00:37:23;2.03;;;1.40;;
11211;SDS011;5663;50.864;12.096;2023-08-31T00:39:55;1.73;;;1.60;;
11211;SDS011;5663;50.864;12.096;2023-08-31T00:43:02;2.43;;;1.57;;
11211;SDS011;5663;50.864;12.096;2023-08-31T00:45:42;2.80;;;1.30;;
11211;SDS011;5663;50.864;12.096;2023-08-31T00:48:16;3.07;;;1.60;;
11211;SDS011;5663;50.864;12.096;2023-08-31T00:50:50;1.63;;;1.43;;
11211;SDS011;5663;50.864;12.096;2023-08-31T00:53:23;1.70;;;1.40;;
11211;SDS011;5663;50.864;12.096;2023-08-31T00:55:56;2.03;;;1.40;;
11211;SDS011;5663;50.864;12.096;2023-08-31T00:58:27;1.60;;;1.50;;
11211;SDS011;5663;50.864;12.096;2023-08-31T01:01:11;2.53;;;1.57;;
11211;SDS011;5663;50.864;12.096;2023-08-31T01:03:48;1.37;;;1.27;;
11211;SDS011;5663;50.864;12.096;2023-08-31T01:06:25;1.80;;;1.40;;
11211;SDS011;5663;50.864;12.096;2023-08-31T01:08:56;1.40;;;1.30;;
11211;SDS011;5663;50.864;12.096;2023-08-31T01:11:34;1.37;;;1.27;;
11211;SDS011;5663;50.864;12.096;2023-08-31T01:14:10;2.57;;;1.30;;
11211;SDS011;5663;50.864;12.096;2023-08-31T01:16:48;1.50;;;1.20;;
11211;SDS011;5663;50.864;12.096;2023-08-31T01:19:34;1.80;;;1.57;;
11211;SDS011;5663;50.864;12.096;2023-08-31T01:22:38;1.47;;;1.37;;
11211;SDS011;5663;50.864;12.096;2023-08-31T01:25:11;3.67;;;1.53;;
11211;SDS011;5663;50.864;12.096;2023-08-31T01:27:44;1.83;;;1.20;;
11211;SDS011;5663;50.864;12.096;2023-08-31T01:30:21;1.80;;;1.57;;
11211;SDS011;5663;50.864;12.096;2023-08-31T01:32:54;1.40;;;1.30;;
11211;SDS011;5663;50.864;12.096;2023-08-31T01:35:40;4.13;;;1.47;;
11211;SDS011;5663;50.864;12.096;2023-08-31T01:38:34;1.90;;;1.60;;
11211;SDS011;5663;50.864;12.096;2023-08-31T01:41:17;2.57;;;1.43;;
11211;SDS011;5663;50.864;12.096;2023-08-31T01:44:01;2.07;;;1.20;;
11211;SDS011;5663;50.864;12.096;2023-08-31T01:53:45;2.40;;;1.70;;
11211;SDS011;5663;50.864;12.096;2023-08-31T01:56:21;1.97;;;1.50;;
11211;SDS011;5663;50.864;12.096;2023-08-31T01:59:27;1.60;;;1.50;;
11211;SDS011;5663;50.864;12.096;2023-08-31T02:02:14;2.67;;;1.30;;
11211;SDS011;5663;50.864;12.096;2023-08-31T02:04:53;1.30;;;1.20;;
11211;SDS011;5663;50.864;12.096;2023-08-31T02:07:22;1.77;;;1.67;;
11211;SDS011;5663;50.864;12.096;2023-08-31T02:09:51;1.93;;;1.67;;
11211;SDS011;5663;50.864;12.096;2023-08-31T02:12:21;2.00;;;1.73;;
11211;SDS011;5663;50.864;12.096;2023-08-31T02:14:51;2.13;;;1.50;;
11211;SDS011;5663;50.864;12.096;2023-08-31T02:17:39;2.07;;;1.70;;
11211;SDS011;5663;50.864;12.096;2023-08-31T02:20:08;1.70;;;1.60;;
11211;SDS011;5663;50.864;12.096;2023-08-31T02:23:00;2.13;;;1.60;;
11211;SDS011;5663;50.864;12.096;2023-08-31T02:25:49;3.33;;;1.63;;
11211;SDS011;5663;50.864;12.096;2023-08-31T02:28:18;2.33;;;1.87;;
11211;SDS011;5663;50.864;12.096;2023-08-31T02:31:03;4.50;;;2.17;;
11211;SDS011;5663;50.864;12.096;2023-08-31T02:39:54;4.30;;;2.07;;
11211;SDS011;5663;50.864;12.096;2023-08-31T02:42:23;2.13;;;1.93;;
11211;SDS011;5663;50.864;12.096;2023-08-31T02:44:55;1.73;;;1.63;;
11211;SDS011;5663;50.864;12.096;2023-08-31T02:47:43;2.37;;;2.00;;
11211;SDS011;5663;50.864;12.096;2023-08-31T02:50:30;2.57;;;2.20;;
11211;SDS011;5663;50.864;12.096;2023-08-31T02:53:04;4.20;;;2.10;;
11211;SDS011;5663;50.864;12.096;2023-08-31T02:55:57;2.53;;;2.00;;
11211;SDS011;5663;50.864;12.096;2023-08-31T02:58:41;3.70;;;2.10;;
11211;SDS011;5663;50.864;12.096;2023-08-31T03:01:14;2.90;;;1.93;;
11211;SDS011;5663;50.864;12.096;2023-08-31T03:03:44;2.00;;;1.90;;
11211;SDS011;5663;50.864;12.096;2023-08-31T03:06:14;4.80;;;1.80;;
11211;SDS011;5663;50.864;12.096;2023-08-31T03:08:50;2.40;;;2.10;;
11211;SDS011;5663;50.864;12.096;2023-08-31T03:14:49;2.13;;;1.93;;
11211;SDS011;5663;50.864;12.096;2023-08-31T03:17:20;3.73;;;2.37;;
11211;SDS011;5663;50.864;12.096;2023-08-31T03:19:49;3.23;;;2.10;;
11211;SDS011;5663;50.864;12.096;2023-08-31T03:22:36;3.03;;;1.87;;
11211;SDS011;5663;50.864;12.096;2023-08-31T03:28:44;4.17;;;2.00;;
11211;SDS011;5663;50.864;12.096;2023-08-31T03:34:48;1.97;;;1.73;;
11211;SDS011;5663;50.864;12.096;2023-08-31T03:37:25;4.33;;;1.80;;
11211;SDS011;5663;50.864;12.096;2023-08-31T03:40:08;2.57;;;1.70;;
11211;SDS011;5663;50.864;12.096;2023-08-31T03:42:58;2.20;;;2.00;;
11211;SDS011;5663;50.864;12.096;2023-08-31T04:08:53;2.50;;;2.00;;
11211;SDS011;5663;50.864;12.096;2023-08-31T04:11:44;1.97;;;1.77;;
11211;SDS011;5663;50.864;12.096;2023-08-31T04:14:15;2.20;;;1.70;;
11211;SDS011;5663;50.864;12.096;2023-08-31T04:16:54;3.37;;;2.30;;
11211;SDS011;5663;50.864;12.096;2023-08-31T04:19:48;3.57;;;2.00;;
11211;SDS011;5663;50.864;12.096;2023-08-31T04:22:21;3.67;;;2.60;;
11211;SDS011;5663;50.864;12.096;2023-08-31T04:24:53;2.97;;;1.90;;
11211;SDS011;5663;50.864;12.096;2023-08-31T04:35:04;2.53;;;2.33;;
11211;SDS011;5663;50.864;12.096;2023-08-31T04:37:32;2.10;;;1.87;;
11211;SDS011;5663;50.864;12.096;2023-08-31T04:40:17;2.10;;;1.90;;
11211;SDS011;5663;50.864;12.096;2023-08-31T04:46:24;2.60;;;2.10;;
11211;SDS011;5663;50.864;12.096;2023-08-31T04:52:04;3.23;;;2.47;;
11211;SDS011;5663;50.864;12.096;2023-08-31T04:54:34;2.73;;;2.40;;
11211;SDS011;5663;50.864;12.096;2023-08-31T05:12:57;4.43;;;2.37;;
11211;SDS011;5663;50.864;12.096;2023-08-31T05:15:38;3.47;;;2.30;;
11211;SDS011;5663;50.864;12.096;2023-08-31T05:21:45;4.87;;;2.43;;
11211;SDS011;5663;50.864;12.096;2023-08-31T05:24:34;2.60;;;2.40;;
11211;SDS011;5663;50.864;12.096;2023-08-31T05:27:11;2.93;;;2.50;;
11211;SDS011;5663;50.864;12.096;2023-08-31T07:00:01;5.30;;;4.20;;
11211;SDS011;5663;50.864;12.096;2023-08-31T07:02:45;6.17;;;4.63;;
11211;SDS011;5663;50.864;12.096;2023-08-31T07:05:41;6.73;;;4.03;;
11211;SDS011;5663;50.864;12.096;2023-08-31T07:15:53;8.33;;;4.07;;
11211;SDS011;5663;50.864;12.096;2023-08-31T07:49:16;7.67;;;4.43;;
11211;SDS011;5663;50.864;12.096;2023-08-31T07:56:12;5.37;;;3.97;;
11211;SDS011;5663;50.864;12.096;2023-08-31T08:44:01;5.03;;;3.00;;
11211;SDS011;5663;50.864;12.096;2023-08-31T08:46:57;5.50;;;3.13;;
11211;SDS011;5663;50.864;12.096;2023-08-31T08:52:16;5.33;;;2.77;;
11211;SDS011;5663;50.864;12.096;2023-08-31T09:08:05;6.00;;;2.90;;
11211;SDS011;5663;50.864;12.096;2023-08-31T09:11:22;4.90;;;2.67;;
11211;SDS011;5663;50.864;12.096;2023-08-31T09:20:44;5.00;;;2.87;;
11211;SDS011;5663;50.864;12.096;2023-08-31T09:23:29;3.73;;;2.70;;
11211;SDS011;5663;50.864;12.096;2023-08-31T09:39:52;3.37;;;2.47;;
11211;SDS011;5663;50.864;12.096;2023-08-31T09:45:55;2.53;;;2.30;;
11211;SDS011;5663;50.864;12.096;2023-08-31T10:06:12;2.10;;;1.90;;
11211;SDS011;5663;50.864;12.096;2023-08-31T10:14:56;4.07;;;1.90;;
11211;SDS011;5663;50.864;12.096;2023-08-31T10:18:27;4.50;;;2.00;;
11211;SDS011;5663;50.864;12.096;2023-08-31T10:21:50;2.43;;;1.97;;
11211;SDS011;5663;50.864;12.096;2023-08-31T10:24:57;7.07;;;1.90;;
11211;SDS011;5663;50.864;12.096;2023-08-31T10:27:44;3.30;;;2.23;;
11211;SDS011;5663;50.864;12.096;2023-08-31T10:30:38;3.47;;;2.03;;
11211;SDS011;5663;50.864;12.096;2023-08-31T10:36:20;3.03;;;1.70;;
11211;SDS011;5663;50.864;12.096;2023-08-31T10:57:21;1.67;;;1.50;;
11211;SDS011;5663;50.864;12.096;2023-08-31T11:00:47;2.65;;;2.00;;
11211;SDS011;5663;50.864;12.096;2023-08-31T11:03:58;2.05;;;1.50;;
11211;SDS011;5663;50.864;12.096;2023-08-31T11:07:08;2.28;;;1.70;;
11211;SDS011;5663;50.864;12.096;2023-08-31T11:10:08;4.50;;;1.85;;
11211;SDS011;5663;50.864;12.096;2023-08-31T11:13:03;2.28;;;1.70;;
11211;SDS011;5663;50.864;12.096;2023-08-31T11:15:58;2.70;;;1.60;;
11211;SDS011;5663;50.864;12.096;2023-08-31T11:22:00;6.22;;;2.15;;
11211;SDS011;5663;50.864;12.096;2023-08-31T11:24:37;7.50;;;1.70;;
11211;SDS011;5663;50.864;12.096;2023-08-31T11:27:57;2.88;;;1.50;;
11211;SDS011;5663;50.864;12.096;2023-08-31T11:30:17;2.17;;;1.88;;
11211;SDS011;5663;50.864;12.096;2023-08-31T11:32:52;1.60;;;1.50;;
11211;SDS011;5663;50.864;12.096;2023-08-31T11:35:49;2.42;;;1.60;;
11211;SDS011;5663;50.864;12.096;2023-08-31T11:38:21;2.38;;;1.63;;
11211;SDS011;5663;50.864;12.096;2023-08-31T11:41:01;4.78;;;1.60;;
11211;SDS011;5663;50.864;12.096;2023-08-31T11:47:00;1.77;;;1.30;;
11211;SDS011;5663;50.864;12.096;2023-08-31T11:49:55;2.92;;;1.50;;
11211;SDS011;5663;50.864;12.096;2023-08-31T11:55:50;4.63;;;1.70;;
11211;SDS011;5663;50.864;12.096;2023-08-31T12:01:03;2.30;;;1.77;;
11211;SDS011;5663;50.864;12.096;2023-08-31T12:03:53;2.72;;;1.60;;
11211;SDS011;5663;50.864;12.096;2023-08-31T12:06:21;1.48;;;1.38;;
11211;SDS011;5663;50.864;12.096;2023-08-31T12:11:58;2.50;;;1.60;;
11211;SDS011;5663;50.864;12.096;2023-08-31T12:14:26;1.58;;;1.48;;
11211;SDS011;5663;50.864;12.096;2023-08-31T12:17:00;2.72;;;1.50;;
11211;SDS011;5663;50.864;12.096;2023-08-31T12:19:35;2.40;;;1.40;;
11211;SDS011;5663;50.864;12.096;2023-08-31T12:22:04;5.20;;;1.40;;
11211;SDS011;5663;50.864;12.096;2023-08-31T12:24:42;1.75;;;1.58;;
11211;SDS011;5663;50.864;12.096;2023-08-31T12:27:33;1.73;;;1.50;;
11211;SDS011;5663;50.864;12.096;2023-08-31T12:30:25;4.13;;;1.50;;
11211;SDS011;5663;50.864;12.096;2023-08-31T12:32:59;3.25;;;1.60;;
11211;SDS011;5663;50.864;12.096;2023-08-31T12:35:28;2.53;;;1.67;;
11211;SDS011;5663;50.864;12.096;2023-08-31T12:38:18;1.58;;;1.48;;
11211;SDS011;5663;50.864;12.096;2023-08-31T12:44:37;1.60;;;1.50;;
11211;SDS011;5663;50.864;12.096;2023-08-31T12:47:15;1.80;;;1.50;;
11211;SDS011;5663;50.864;12.096;2023-08-31T12:53:11;2.08;;;1.70;;
11211;SDS011;5663;50.864;12.096;2023-08-31T12:55:39;1.70;;;1.23;;
11211;SDS011;5663;50.864;12.096;2023-08-31T12:58:29;2.45;;;1.40;;
11211;SDS011;5663;50.864;12.096;2023-08-31T13:01:00;1.90;;;1.52;;
11211;SDS011;5663;50.864;12.096;2023-08-31T13:03:40;1.65;;;1.30;;
11211;SDS011;5663;50.864;12.096;2023-08-31T13:06:28;1.90;;;1.35;;
11211;SDS011;5663;50.864;12.096;2023-08-31T13:09:08;2.58;;;1.55;;
11211;SDS011;5663;50.864;12.096;2023-08-31T13:13:29;2.88;;;1.45;;
11211;SDS011;5663;50.864;12.096;2023-08-31T13:18:15;2.00;;;1.40;;
11211;SDS011;5663;50.864;12.096;2023-08-31T13:20:50;1.73;;;1.40;;
11211;SDS011;5663;50.864;12.096;2023-08-31T13:23:21;2.00;;;1.27;;
11211;SDS011;5663;50.864;12.096;2023-08-31T13:32:01;2.78;;;1.40;;
11211;SDS011;5663;50.864;12.096;2023-08-31T13:34:49;3.50;;;1.35;;
11211;SDS011;5663;50.864;12.096;2023-08-31T13:43:05;2.50;;;1.73;;
11211;SDS011;5663;50.864;12.096;2023-08-31T13:52:59;2.70;;;1.25;;
11211;SDS011;5663;50.864;12.096;2023-08-31T14:48:02;1.92;;;1.30;;
11211;SDS011;5663;50.864;12.096;2023-08-31T14:51:12;3.85;;;1.50;;
11211;SDS011;5663;50.864;12.096;2023-08-31T15:16:40;2.38;;;1.40;;
11211;SDS011;5663;50.864;12.096;2023-08-31T15:19:47;1.63;;;1.30;;
11211;SDS011;5663;50.864;12.096;2023-08-31T15:24:51;2.17;;;1.38;;
11211;SDS011;5663;50.864;12.096;2023-08-31T15:27:26;2.05;;;1.42;;
11211;SDS011;5663;50.864;12.096;2023-08-31T15:31:42;1.50;;;1.40;;
11211;SDS011;5663;50.864;12.096;2023-08-31T15:33:31;2.60;;;1.30;;
11211;SDS011;5663;50.864;12.096;2023-08-31T15:36:20;4.28;;;1.70;;
11211;SDS011;5663;50.864;12.096;2023-08-31T15:38:47;2.05;;;1.50;;
11211;SDS011;5663;50.864;12.096;2023-08-31T15:41:23;2.45;;;1.73;;
11211;SDS011;5663;50.864;12.096;2023-08-31T15:44:03;2.53;;;1.40;;
11211;SDS011;5663;50.864;12.096;2023-08-31T15:49:18;3.40;;;1.70;;
11211;SDS011;5663;50.864;12.096;2023-08-31T15:52:12;2.53;;;2.00;;
11211;SDS011;5663;50.864;12.096;2023-08-31T15:55:06;2.47;;;1.60;;
11211;SDS011;5663;50.864;12.096;2023-08-31T17:19:11;3.67;;;1.50;;
11211;SDS011;5663;50.864;12.096;2023-08-31T22:26:51;2.67;;;1.70;;
11211;SDS011;5663;50.864;12.096;2023-08-31T22:30:19;2.33;;;1.80;;
11211;SDS011;5663;50.864;12.096;2023-08-31T23:02:52;3.80;;;2.00;;
11211;SDS011;5663;50.864;12.096;2023-08-31T23:05:52;1.90;;;1.43;;
11211;SDS011;5663;50.864;12.096;2023-08-31T23:12:43;2.10;;;1.83;;
11211;SDS011;5663;50.864;12.096;2023-08-31T23:21:29;2.70;;;1.97;;
11211;SDS011;5663;50.864;12.096;2023-08-31T23:40:18;2.20;;;2.00;;
11211;SDS011;5663;50.864;12.096;2023-08-31T23:43:21;4.37;;;1.90;;
11211;SDS011;5663;50.864;12.096;2023-08-31T23:46:33;2.67;;;2.07;;
11211;SDS011;5663;50.864;12.096;2023-08-31T23:49:39;3.57;;;2.10;;
11211;SDS011;5663;50.864;12.096;2023-08-31T23:52:32;2.10;;;1.90;;
